sensor_id;sensor_type;location;lat;lon;timestamp;P1;durP1;ratioP1;P2;durP2;ratioP2
17967;SDS011;9109;48.050;11.696;2022-09-29T03:47:44;3.37;;;1.73;;
17967;SDS011;9109;48.050;11.696;2022-09-29T03:50:46;1.90;;;1.63;;
17967;SDS011;9109;48.050;11.696;2022-09-29T03:53:48;2.00;;;1.80;;
17967;SDS011;9109;48.050;11.696;2022-09-29T03:56:50;2.30;;;1.80;;
17967;SDS011;9109;48.050;11.696;2022-09-29T03:59:52;2.23;;;1.77;;
17967;SDS011;9109;48.050;11.696;2022-09-29T04:02:56;2.30;;;1.70;;
17967;SDS011;9109;48.050;11.696;2022-09-29T04:05:58;1.90;;;1.50;;
17967;SDS011;9109;48.050;11.696;2022-09-29T04:09:00;4.63;;;1.80;;
17967;SDS011;9109;48.050;11.696;2022-09-29T04:12:01;5.37;;;1.67;;
17967;SDS011;9109;48.050;11.696;2022-09-29T04:15:04;3.00;;;1.97;;
17967;SDS011;9109;48.050;11.696;2022-09-29T04:18:08;2.43;;;1.90;;
17967;SDS011;9109;48.050;11.696;2022-09-29T04:21:10;3.03;;;1.90;;
17967;SDS011;9109;48.050;11.696;2022-09-29T04:24:12;2.20;;;1.60;;
17967;SDS011;9109;48.050;11.696;2022-09-29T04:27:19;2.20;;;1.77;;
17967;SDS011;9109;48.050;11.696;2022-09-29T04:30:21;2.67;;;1.90;;
17967;SDS011;9109;48.050;11.696;2022-09-29T04:33:25;2.50;;;1.70;;
17967;SDS011;9109;48.050;11.696;2022-09-29T04:36:29;3.13;;;1.90;;
17967;SDS011;9109;48.050;11.696;2022-09-29T04:39:30;3.77;;;1.63;;
17967;SDS011;9109;48.050;11.696;2022-09-29T04:42:32;2.30;;;1.67;;
17967;SDS011;9109;48.050;11.696;2022-09-29T04:45:35;2.90;;;1.87;;
17967;SDS011;9109;48.050;11.696;2022-09-29T04:48:53;3.10;;;2.00;;
17967;SDS011;9109;48.050;11.696;2022-09-29T04:51:56;2.87;;;1.70;;
17967;SDS011;9109;48.050;11.696;2022-09-29T04:55:01;2.03;;;1.70;;
17967;SDS011;9109;48.050;11.696;2022-09-29T04:58:13;6.60;;;1.60;;
17967;SDS011;9109;48.050;11.696;2022-09-29T05:01:15;2.07;;;1.57;;
17967;SDS011;9109;48.050;11.696;2022-09-29T05:04:19;11.30;;;1.60;;
17967;SDS011;9109;48.050;11.696;2022-09-29T05:07:43;2.10;;;1.77;;
17967;SDS011;9109;48.050;11.696;2022-09-29T05:10:48;1.87;;;1.63;;
17967;SDS011;9109;48.050;11.696;2022-09-29T05:14:04;3.20;;;1.80;;
17967;SDS011;9109;48.050;11.696;2022-09-29T05:17:08;2.90;;;1.77;;
17967;SDS011;9109;48.050;11.696;2022-09-29T05:35:17;2.83;;;1.70;;
17967;SDS011;9109;48.050;11.696;2022-09-29T05:42:49;6.23;;;3.63;;
17967;SDS011;9109;48.050;11.696;2022-09-29T05:46:13;5.80;;;3.40;;
17967;SDS011;9109;48.050;11.696;2022-09-29T05:49:44;14.40;;;4.07;;
17967;SDS011;9109;48.050;11.696;2022-09-29T05:53:02;8.40;;;3.10;;
17967;SDS011;9109;48.050;11.696;2022-09-29T05:56:25;9.17;;;4.50;;
17967;SDS011;9109;48.050;11.696;2022-09-29T06:02:47;4.57;;;3.07;;
17967;SDS011;9109;48.050;11.696;2022-09-29T06:05:49;3.33;;;2.63;;
17967;SDS011;9109;48.050;11.696;2022-09-29T06:09:02;4.97;;;3.20;;
17967;SDS011;9109;48.050;11.696;2022-09-29T06:12:04;10.10;;;3.60;;
17967;SDS011;9109;48.050;11.696;2022-09-29T06:15:08;5.27;;;3.70;;
17967;SDS011;9109;48.050;11.696;2022-09-29T06:18:12;5.77;;;3.83;;
17967;SDS011;9109;48.050;11.696;2022-09-29T06:21:15;5.50;;;3.30;;
17967;SDS011;9109;48.050;11.696;2022-09-29T06:24:28;6.17;;;3.40;;
17967;SDS011;9109;48.050;11.696;2022-09-29T06:27:32;5.73;;;3.20;;
17967;SDS011;9109;48.050;11.696;2022-09-29T06:30:36;5.57;;;3.00;;
17967;SDS011;9109;48.050;11.696;2022-09-29T06:33:52;5.70;;;3.30;;
17967;SDS011;9109;48.050;11.696;2022-09-29T06:36:56;5.90;;;3.37;;
17967;SDS011;9109;48.050;11.696;2022-09-29T06:40:16;4.53;;;2.90;;
17967;SDS011;9109;48.050;11.696;2022-09-29T06:43:22;3.33;;;2.37;;
17967;SDS011;9109;48.050;11.696;2022-09-29T06:46:26;3.63;;;2.57;;
17967;SDS011;9109;48.050;11.696;2022-09-29T06:49:28;3.97;;;2.43;;
17967;SDS011;9109;48.050;11.696;2022-09-29T06:53:00;3.53;;;2.20;;
17967;SDS011;9109;48.050;11.696;2022-09-29T06:56:07;3.60;;;2.20;;
17967;SDS011;9109;48.050;11.696;2022-09-29T07:00:04;2.67;;;1.83;;
17967;SDS011;9109;48.050;11.696;2022-09-29T07:16:09;2.00;;;1.67;;
17967;SDS011;9109;48.050;11.696;2022-09-29T07:19:14;1.93;;;1.50;;
17967;SDS011;9109;48.050;11.696;2022-09-29T07:22:17;2.53;;;1.70;;
17967;SDS011;9109;48.050;11.696;2022-09-29T07:25:19;2.83;;;1.70;;
17967;SDS011;9109;48.050;11.696;2022-09-29T07:28:21;5.90;;;1.70;;
17967;SDS011;9109;48.050;11.696;2022-09-29T07:31:24;2.10;;;1.60;;
17967;SDS011;9109;48.050;11.696;2022-09-29T07:34:40;2.13;;;1.40;;
17967;SDS011;9109;48.050;11.696;2022-09-29T07:41:04;2.77;;;1.30;;
17967;SDS011;9109;48.050;11.696;2022-09-29T07:44:07;1.07;;;0.93;;
17967;SDS011;9109;48.050;11.696;2022-09-29T07:47:10;4.13;;;1.10;;
17967;SDS011;9109;48.050;11.696;2022-09-29T07:53:33;1.37;;;1.00;;
17967;SDS011;9109;48.050;11.696;2022-09-29T07:56:50;3.67;;;1.07;;
17967;SDS011;9109;48.050;11.696;2022-09-29T08:01:17;1.23;;;1.00;;
17967;SDS011;9109;48.050;11.696;2022-09-29T08:03:57;1.20;;;1.00;;
17967;SDS011;9109;48.050;11.696;2022-09-29T08:10:59;3.50;;;1.40;;
17967;SDS011;9109;48.050;11.696;2022-09-29T08:14:03;1.83;;;1.20;;
17967;SDS011;9109;48.050;11.696;2022-09-29T08:17:14;1.30;;;1.10;;
17967;SDS011;9109;48.050;11.696;2022-09-29T08:20:16;2.87;;;1.30;;
17967;SDS011;9109;48.050;11.696;2022-09-29T08:23:34;4.90;;;1.33;;
17967;SDS011;9109;48.050;11.696;2022-09-29T08:26:40;2.03;;;1.27;;
17967;SDS011;9109;48.050;11.696;2022-09-29T08:31:21;1.97;;;1.50;;
17967;SDS011;9109;48.050;11.696;2022-09-29T08:49:51;1.60;;;0.97;;
17967;SDS011;9109;48.050;11.696;2022-09-29T08:53:10;3.17;;;0.87;;
17967;SDS011;9109;48.050;11.696;2022-09-29T09:40:53;0.93;;;0.80;;
17967;SDS011;9109;48.050;11.696;2022-09-29T09:44:08;1.73;;;1.00;;
17967;SDS011;9109;48.050;11.696;2022-09-29T09:47:36;1.30;;;1.00;;
17967;SDS011;9109;48.050;11.696;2022-09-29T09:51:37;2.87;;;1.00;;
17967;SDS011;9109;48.050;11.696;2022-09-29T09:54:53;1.53;;;1.30;;
17967;SDS011;9109;48.050;11.696;2022-09-29T09:58:10;1.30;;;1.00;;
17967;SDS011;9109;48.050;11.696;2022-09-29T10:01:33;1.87;;;0.90;;
17967;SDS011;9109;48.050;11.696;2022-09-29T10:04:38;3.43;;;1.10;;
17967;SDS011;9109;48.050;11.696;2022-09-29T10:07:40;2.70;;;1.13;;
17967;SDS011;9109;48.050;11.696;2022-09-29T10:14:42;8.17;;;3.83;;
17967;SDS011;9109;48.050;11.696;2022-09-29T10:18:06;3.10;;;1.50;;
17967;SDS011;9109;48.050;11.696;2022-09-29T10:21:48;5.20;;;1.20;;
17967;SDS011;9109;48.050;11.696;2022-09-29T10:25:06;1.40;;;1.00;;
17967;SDS011;9109;48.050;11.696;2022-09-29T10:28:45;1.20;;;0.90;;
17967;SDS011;9109;48.050;11.696;2022-09-29T10:32:15;1.60;;;1.00;;
17967;SDS011;9109;48.050;11.696;2022-09-29T10:35:36;2.80;;;1.10;;
17967;SDS011;9109;48.050;11.696;2022-09-29T10:38:45;1.30;;;0.90;;
17967;SDS011;9109;48.050;11.696;2022-09-29T10:41:50;12.20;;;3.10;;
17967;SDS011;9109;48.050;11.696;2022-09-29T10:44:59;14.07;;;4.50;;
17967;SDS011;9109;48.050;11.696;2022-09-29T10:48:15;5.00;;;2.23;;
17967;SDS011;9109;48.050;11.696;2022-09-29T10:51:18;1.43;;;1.00;;
17967;SDS011;9109;48.050;11.696;2022-09-29T10:54:35;1.50;;;0.93;;
17967;SDS011;9109;48.050;11.696;2022-09-29T10:57:43;1.00;;;0.90;;
17967;SDS011;9109;48.050;11.696;2022-09-29T11:01:03;1.90;;;1.00;;
17967;SDS011;9109;48.050;11.696;2022-09-29T11:04:23;2.70;;;1.10;;
17967;SDS011;9109;48.050;11.696;2022-09-29T11:07:29;6.70;;;0.90;;
17967;SDS011;9109;48.050;11.696;2022-09-29T11:10:47;4.10;;;1.27;;
17967;SDS011;9109;48.050;11.696;2022-09-29T11:14:02;1.07;;;0.97;;
17967;SDS011;9109;48.050;11.696;2022-09-29T11:17:24;4.80;;;1.60;;
17967;SDS011;9109;48.050;11.696;2022-09-29T11:20:31;2.50;;;1.10;;
17967;SDS011;9109;48.050;11.696;2022-09-29T11:23:47;1.80;;;1.20;;
17967;SDS011;9109;48.050;11.696;2022-09-29T11:27:17;1.53;;;1.33;;
17967;SDS011;9109;48.050;11.696;2022-09-29T11:30:46;2.10;;;1.23;;
17967;SDS011;9109;48.050;11.696;2022-09-29T11:34:30;7.13;;;1.27;;
17967;SDS011;9109;48.050;11.696;2022-09-29T11:38:18;1.33;;;1.07;;
17967;SDS011;9109;48.050;11.696;2022-09-29T11:41:53;2.53;;;1.43;;
17967;SDS011;9109;48.050;11.696;2022-09-29T11:45:21;1.87;;;1.43;;
17967;SDS011;9109;48.050;11.696;2022-09-29T11:53:04;2.33;;;1.30;;
17967;SDS011;9109;48.050;11.696;2022-09-29T11:56:29;3.10;;;1.50;;
17967;SDS011;9109;48.050;11.696;2022-09-29T12:00:06;2.23;;;1.43;;
17967;SDS011;9109;48.050;11.696;2022-09-29T12:03:42;1.45;;;1.10;;
17967;SDS011;9109;48.050;11.696;2022-09-29T12:07:12;3.07;;;1.20;;
17967;SDS011;9109;48.050;11.696;2022-09-29T12:10:45;1.63;;;1.10;;
17967;SDS011;9109;48.050;11.696;2022-09-29T12:14:06;3.20;;;1.70;;
17967;SDS011;9109;48.050;11.696;2022-09-29T12:17:32;3.23;;;1.30;;
17967;SDS011;9109;48.050;11.696;2022-09-29T12:20:49;3.23;;;1.67;;
17967;SDS011;9109;48.050;11.696;2022-09-29T12:23:54;1.23;;;0.93;;
17967;SDS011;9109;48.050;11.696;2022-09-29T12:26:59;2.53;;;1.20;;
17967;SDS011;9109;48.050;11.696;2022-09-29T12:30:14;1.30;;;0.90;;
17967;SDS011;9109;48.050;11.696;2022-09-29T12:37:38;6.97;;;1.40;;
17967;SDS011;9109;48.050;11.696;2022-09-29T13:05:29;2.17;;;1.10;;
17967;SDS011;9109;48.050;11.696;2022-09-29T13:28:45;3.20;;;1.90;;
17967;SDS011;9109;48.050;11.696;2022-09-29T14:00:51;3.50;;;2.80;;
17967;SDS011;9109;48.050;11.696;2022-09-29T14:07:39;7.17;;;3.40;;
17967;SDS011;9109;48.050;11.696;2022-09-29T14:11:00;6.67;;;3.60;;
17967;SDS011;9109;48.050;11.696;2022-09-29T14:14:40;6.80;;;3.50;;
17967;SDS011;9109;48.050;11.696;2022-09-29T14:17:45;8.57;;;3.80;;
17967;SDS011;9109;48.050;11.696;2022-09-29T14:20:57;7.38;;;3.97;;
17967;SDS011;9109;48.050;11.696;2022-09-29T14:24:03;10.80;;;4.40;;
17967;SDS011;9109;48.050;11.696;2022-09-29T14:27:28;14.17;;;6.53;;
17967;SDS011;9109;48.050;11.696;2022-09-29T14:30:51;9.77;;;5.73;;
17967;SDS011;9109;48.050;11.696;2022-09-29T14:34:03;8.47;;;4.50;;
17967;SDS011;9109;48.050;11.696;2022-09-29T14:37:05;6.03;;;4.55;;
17967;SDS011;9109;48.050;11.696;2022-09-29T14:40:16;6.87;;;3.70;;
17967;SDS011;9109;48.050;11.696;2022-09-29T14:43:37;8.53;;;4.63;;
17967;SDS011;9109;48.050;11.696;2022-09-29T14:50:13;8.00;;;3.97;;
17967;SDS011;9109;48.050;11.696;2022-09-29T14:53:52;11.13;;;5.80;;
17967;SDS011;9109;48.050;11.696;2022-09-29T15:01:17;12.23;;;4.73;;
17967;SDS011;9109;48.050;11.696;2022-09-29T15:04:25;4.83;;;3.50;;
17967;SDS011;9109;48.050;11.696;2022-09-29T15:07:38;7.50;;;3.30;;
17967;SDS011;9109;48.050;11.696;2022-09-29T15:10:49;5.07;;;3.00;;
17967;SDS011;9109;48.050;11.696;2022-09-29T15:13:56;5.67;;;3.30;;
17967;SDS011;9109;48.050;11.696;2022-09-29T15:21:05;5.03;;;3.27;;
17967;SDS011;9109;48.050;11.696;2022-09-29T15:32:18;4.93;;;2.43;;
17967;SDS011;9109;48.050;11.696;2022-09-29T15:35:29;2.93;;;2.00;;
17967;SDS011;9109;48.050;11.696;2022-09-29T15:38:59;3.00;;;2.33;;
17967;SDS011;9109;48.050;11.696;2022-09-29T15:42:31;5.67;;;2.80;;
17967;SDS011;9109;48.050;11.696;2022-09-29T15:46:12;3.73;;;2.57;;
17967;SDS011;9109;48.050;11.696;2022-09-29T15:49:25;11.87;;;5.33;;
17967;SDS011;9109;48.050;11.696;2022-09-29T15:52:43;14.80;;;5.77;;
17967;SDS011;9109;48.050;11.696;2022-09-29T15:56:00;8.17;;;4.53;;
17967;SDS011;9109;48.050;11.696;2022-09-29T16:02:59;7.57;;;2.63;;
17967;SDS011;9109;48.050;11.696;2022-09-29T16:06:25;17.10;;;3.23;;
17967;SDS011;9109;48.050;11.696;2022-09-29T16:09:39;6.47;;;2.83;;
17967;SDS011;9109;48.050;11.696;2022-09-29T16:13:14;9.97;;;2.43;;
17967;SDS011;9109;48.050;11.696;2022-09-29T16:16:26;4.10;;;2.40;;
17967;SDS011;9109;48.050;11.696;2022-09-29T16:19:41;4.17;;;3.00;;
17967;SDS011;9109;48.050;11.696;2022-09-29T16:22:50;2.70;;;2.33;;
17967;SDS011;9109;48.050;11.696;2022-09-29T16:26:07;6.87;;;2.90;;
17967;SDS011;9109;48.050;11.696;2022-09-29T16:29:23;8.80;;;4.10;;
17967;SDS011;9109;48.050;11.696;2022-09-29T16:32:36;26.67;;;8.73;;
17967;SDS011;9109;48.050;11.696;2022-09-29T16:35:45;33.30;;;11.47;;
17967;SDS011;9109;48.050;11.696;2022-09-29T16:38:59;13.60;;;6.57;;
17967;SDS011;9109;48.050;11.696;2022-09-29T16:42:32;6.93;;;4.57;;
17967;SDS011;9109;48.050;11.696;2022-09-29T16:45:58;7.03;;;4.43;;
17967;SDS011;9109;48.050;11.696;2022-09-29T16:49:02;8.20;;;4.13;;
17967;SDS011;9109;48.050;11.696;2022-09-29T16:52:14;7.20;;;4.27;;
17967;SDS011;9109;48.050;11.696;2022-09-29T16:55:26;5.30;;;3.70;;
17967;SDS011;9109;48.050;11.696;2022-09-29T16:58:42;7.03;;;4.73;;
17967;SDS011;9109;48.050;11.696;2022-09-29T17:02:12;6.57;;;4.47;;
17967;SDS011;9109;48.050;11.696;2022-09-29T17:05:39;5.83;;;4.47;;
17967;SDS011;9109;48.050;11.696;2022-09-29T17:09:15;9.53;;;4.40;;
17967;SDS011;9109;48.050;11.696;2022-09-29T17:12:28;7.67;;;4.30;;
17967;SDS011;9109;48.050;11.696;2022-09-29T17:15:31;7.03;;;4.87;;
17967;SDS011;9109;48.050;11.696;2022-09-29T17:18:39;6.45;;;4.47;;
17967;SDS011;9109;48.050;11.696;2022-09-29T17:21:58;5.80;;;4.03;;
17967;SDS011;9109;48.050;11.696;2022-09-29T17:25:14;7.77;;;4.27;;
17967;SDS011;9109;48.050;11.696;2022-09-29T17:28:20;5.40;;;4.17;;
17967;SDS011;9109;48.050;11.696;2022-09-29T17:31:28;5.83;;;4.37;;
17967;SDS011;9109;48.050;11.696;2022-09-29T17:34:29;6.67;;;4.57;;
17967;SDS011;9109;48.050;11.696;2022-09-29T17:37:31;7.13;;;4.70;;
17967;SDS011;9109;48.050;11.696;2022-09-29T17:40:38;7.93;;;3.90;;
17967;SDS011;9109;48.050;11.696;2022-09-29T17:43:48;7.13;;;3.10;;
17967;SDS011;9109;48.050;11.696;2022-09-29T17:46:50;6.10;;;3.67;;
17967;SDS011;9109;48.050;11.696;2022-09-29T17:49:53;5.83;;;3.77;;
17967;SDS011;9109;48.050;11.696;2022-09-29T17:52:55;8.37;;;4.20;;
17967;SDS011;9109;48.050;11.696;2022-09-29T17:56:00;7.27;;;4.70;;
17967;SDS011;9109;48.050;11.696;2022-09-29T17:59:12;6.80;;;4.47;;
17967;SDS011;9109;48.050;11.696;2022-09-29T18:02:14;7.80;;;4.60;;
17967;SDS011;9109;48.050;11.696;2022-09-29T18:05:17;6.93;;;4.37;;
17967;SDS011;9109;48.050;11.696;2022-09-29T18:08:23;6.97;;;4.37;;
17967;SDS011;9109;48.050;11.696;2022-09-29T18:11:27;6.77;;;4.17;;
17967;SDS011;9109;48.050;11.696;2022-09-29T18:14:29;9.83;;;4.53;;
17967;SDS011;9109;48.050;11.696;2022-09-29T18:18:07;5.43;;;3.60;;
17967;SDS011;9109;48.050;11.696;2022-09-29T18:21:14;5.27;;;3.67;;
17967;SDS011;9109;48.050;11.696;2022-09-29T18:24:20;5.57;;;3.60;;
17967;SDS011;9109;48.050;11.696;2022-09-29T18:27:26;7.60;;;4.20;;
17967;SDS011;9109;48.050;11.696;2022-09-29T18:30:31;5.73;;;3.93;;
17967;SDS011;9109;48.050;11.696;2022-09-29T18:33:39;6.20;;;4.50;;
17967;SDS011;9109;48.050;11.696;2022-09-29T18:36:41;6.43;;;5.20;;
17967;SDS011;9109;48.050;11.696;2022-09-29T18:39:44;13.93;;;5.70;;
17967;SDS011;9109;48.050;11.696;2022-09-29T18:42:49;9.93;;;5.77;;
17967;SDS011;9109;48.050;11.696;2022-09-29T18:45:52;14.27;;;6.57;;
17967;SDS011;9109;48.050;11.696;2022-09-29T18:48:57;16.30;;;8.20;;
17967;SDS011;9109;48.050;11.696;2022-09-29T18:52:05;20.20;;;9.70;;
17967;SDS011;9109;48.050;11.696;2022-09-29T18:55:10;18.07;;;9.77;;
17967;SDS011;9109;48.050;11.696;2022-09-29T18:58:18;21.73;;;10.30;;
17967;SDS011;9109;48.050;11.696;2022-09-29T19:01:22;23.30;;;10.73;;
17967;SDS011;9109;48.050;11.696;2022-09-29T19:04:26;22.50;;;10.90;;
17967;SDS011;9109;48.050;11.696;2022-09-29T19:07:29;19.37;;;10.23;;
17967;SDS011;9109;48.050;11.696;2022-09-29T19:10:32;15.00;;;8.87;;
17967;SDS011;9109;48.050;11.696;2022-09-29T19:13:36;13.57;;;8.00;;
17967;SDS011;9109;48.050;11.696;2022-09-29T19:16:41;19.30;;;8.10;;
17967;SDS011;9109;48.050;11.696;2022-09-29T19:19:47;12.93;;;7.17;;
17967;SDS011;9109;48.050;11.696;2022-09-29T19:22:50;9.43;;;6.25;;
17967;SDS011;9109;48.050;11.696;2022-09-29T19:26:06;9.97;;;5.97;;
17967;SDS011;9109;48.050;11.696;2022-09-29T19:29:13;14.20;;;6.80;;
17967;SDS011;9109;48.050;11.696;2022-09-29T19:32:21;10.13;;;5.93;;
17967;SDS011;9109;48.050;11.696;2022-09-29T19:35:24;15.77;;;6.50;;
17967;SDS011;9109;48.050;11.696;2022-09-29T19:38:26;10.23;;;6.10;;
17967;SDS011;9109;48.050;11.696;2022-09-29T19:41:28;9.30;;;5.70;;
17967;SDS011;9109;48.050;11.696;2022-09-29T19:44:34;16.87;;;5.57;;
17967;SDS011;9109;48.050;11.696;2022-09-29T19:47:36;10.23;;;5.47;;
17967;SDS011;9109;48.050;11.696;2022-09-29T19:50:39;7.53;;;5.43;;
17967;SDS011;9109;48.050;11.696;2022-09-29T19:53:58;10.97;;;5.70;;
17967;SDS011;9109;48.050;11.696;2022-09-29T19:57:16;7.43;;;5.20;;
17967;SDS011;9109;48.050;11.696;2022-09-29T20:00:19;9.37;;;4.80;;
17967;SDS011;9109;48.050;11.696;2022-09-29T20:03:22;11.37;;;4.97;;
17967;SDS011;9109;48.050;11.696;2022-09-29T20:06:23;7.60;;;4.90;;
17967;SDS011;9109;48.050;11.696;2022-09-29T20:09:25;7.77;;;4.80;;
17967;SDS011;9109;48.050;11.696;2022-09-29T20:12:28;7.27;;;4.53;;
17967;SDS011;9109;48.050;11.696;2022-09-29T20:15:32;10.37;;;6.10;;
17967;SDS011;9109;48.050;11.696;2022-09-29T20:22:06;7.43;;;5.47;;
17967;SDS011;9109;48.050;11.696;2022-09-29T20:25:25;6.17;;;4.27;;
17967;SDS011;9109;48.050;11.696;2022-09-29T20:28:27;7.03;;;4.20;;
17967;SDS011;9109;48.050;11.696;2022-09-29T20:31:32;6.50;;;4.10;;
17967;SDS011;9109;48.050;11.696;2022-09-29T20:34:35;5.70;;;3.43;;
17967;SDS011;9109;48.050;11.696;2022-09-29T20:37:37;8.87;;;4.50;;
17967;SDS011;9109;48.050;11.696;2022-09-29T20:40:39;4.77;;;3.63;;
17967;SDS011;9109;48.050;11.696;2022-09-29T20:43:46;5.17;;;3.57;;
17967;SDS011;9109;48.050;11.696;2022-09-29T20:46:51;7.40;;;3.43;;
17967;SDS011;9109;48.050;11.696;2022-09-29T20:49:54;5.90;;;3.33;;
17967;SDS011;9109;48.050;11.696;2022-09-29T20:52:56;5.37;;;3.60;;
17967;SDS011;9109;48.050;11.696;2022-09-29T20:55:59;5.17;;;3.63;;
17967;SDS011;9109;48.050;11.696;2022-09-29T20:59:01;6.77;;;4.13;;
17967;SDS011;9109;48.050;11.696;2022-09-29T21:02:05;4.50;;;3.33;;
17967;SDS011;9109;48.050;11.696;2022-09-29T21:05:09;6.10;;;3.90;;
17967;SDS011;9109;48.050;11.696;2022-09-29T21:08:11;4.93;;;3.57;;
17967;SDS011;9109;48.050;11.696;2022-09-29T21:11:13;6.13;;;3.93;;
17967;SDS011;9109;48.050;11.696;2022-09-29T21:14:15;4.60;;;3.67;;
17967;SDS011;9109;48.050;11.696;2022-09-29T21:17:20;11.13;;;4.87;;
17967;SDS011;9109;48.050;11.696;2022-09-29T21:20:25;5.53;;;3.93;;
17967;SDS011;9109;48.050;11.696;2022-09-29T21:23:29;5.87;;;4.40;;
17967;SDS011;9109;48.050;11.696;2022-09-29T21:26:32;6.33;;;4.27;;
17967;SDS011;9109;48.050;11.696;2022-09-29T21:29:38;6.63;;;4.17;;
17967;SDS011;9109;48.050;11.696;2022-09-29T21:32:41;9.33;;;4.53;;
17967;SDS011;9109;48.050;11.696;2022-09-29T21:35:44;11.87;;;4.93;;
17967;SDS011;9109;48.050;11.696;2022-09-29T21:38:55;10.60;;;5.40;;
17967;SDS011;9109;48.050;11.696;2022-09-29T21:41:57;8.47;;;4.27;;
17967;SDS011;9109;48.050;11.696;2022-09-29T21:44:59;8.67;;;4.20;;
17967;SDS011;9109;48.050;11.696;2022-09-29T21:48:03;5.10;;;3.83;;
17967;SDS011;9109;48.050;11.696;2022-09-29T21:51:11;6.53;;;4.10;;
17967;SDS011;9109;48.050;11.696;2022-09-29T21:54:17;5.43;;;3.83;;
17967;SDS011;9109;48.050;11.696;2022-09-29T21:57:21;9.17;;;4.87;;
17967;SDS011;9109;48.050;11.696;2022-09-29T22:00:23;7.10;;;4.47;;
17967;SDS011;9109;48.050;11.696;2022-09-29T22:03:30;11.13;;;4.40;;
17967;SDS011;9109;48.050;11.696;2022-09-29T22:06:34;8.03;;;4.93;;
17967;SDS011;9109;48.050;11.696;2022-09-29T22:09:37;6.20;;;4.67;;
17967;SDS011;9109;48.050;11.696;2022-09-29T22:12:44;7.87;;;4.90;;
17967;SDS011;9109;48.050;11.696;2022-09-29T22:15:50;9.57;;;4.57;;
17967;SDS011;9109;48.050;11.696;2022-09-29T22:18:55;9.27;;;5.10;;
17967;SDS011;9109;48.050;11.696;2022-09-29T22:21:58;8.50;;;5.37;;
17967;SDS011;9109;48.050;11.696;2022-09-29T22:25:00;6.13;;;4.40;;
17967;SDS011;9109;48.050;11.696;2022-09-29T22:28:05;10.03;;;5.27;;
17967;SDS011;9109;48.050;11.696;2022-09-29T22:31:07;5.10;;;3.90;;
17967;SDS011;9109;48.050;11.696;2022-09-29T22:34:12;5.27;;;4.10;;
17967;SDS011;9109;48.050;11.696;2022-09-29T22:37:14;5.87;;;3.70;;
17967;SDS011;9109;48.050;11.696;2022-09-29T22:40:18;4.37;;;3.57;;
17967;SDS011;9109;48.050;11.696;2022-09-29T22:43:20;10.03;;;3.57;;
17967;SDS011;9109;48.050;11.696;2022-09-29T22:46:26;11.40;;;3.80;;
17967;SDS011;9109;48.050;11.696;2022-09-29T22:49:31;8.53;;;4.03;;
17967;SDS011;9109;48.050;11.696;2022-09-29T22:52:32;6.77;;;3.27;;
17967;SDS011;9109;48.050;11.696;2022-09-29T22:55:34;6.17;;;3.60;;
17967;SDS011;9109;48.050;11.696;2022-09-29T22:58:37;6.27;;;4.07;;
